»·PEaware :: N3891R KPSP-KHND

N3891R :: KPSP-KHND

FLIGHT INFORMATION

Flight Status: Arrived
Operator: Privately registered:
United States
More flights under this callsign
Pilot: Markus B. (22479)
Aircraft: BEECH AIRCRAFT BARON
(BE58)
More flights by this aircraft type
Origin: KPSP Palm Springs Intl
United States
Destination: KHND Henderson
United States
More flights between these airports :: More routes between these airports
Route: +CATH1 PSP TNP V538 GFS CRESO
File this flight plan on PilotEdge
Remarks:
Altitude:
(Current/Filed)
13,000ft
Speed:
(Current/Filed)
170kts
Departed: 13-Sep-20 01:46 PM
Arrived: 13-Sep-20 02:47 PM
Distance/Time
Traveled:
145nm/1:01
Distance/Time
To Go:
Arrived

Flight Plot

Page will automatically refresh every two minutes.

Flight plan parsing failed; only flown route is shown


Map Options




Map Legend


Flown Route
Filed Route
Departure Airport
Arrival Airport
Navaid (VOR, NDB)
Fix

Horizontal Profiles

Position Reports

Time Latitude Longitude Heading Altitude Ground
Speed
13-Sep-20 13:28 33.821619 -116.506962 225 408ft 0kts
13-Sep-20 13:29 33.821619 -116.506962 225 408ft 0kts
13-Sep-20 13:29 33.821619 -116.506962 225 408ft 0kts
13-Sep-20 13:30 33.821619 -116.506962 225 408ft 0kts
13-Sep-20 13:31 33.821619 -116.506962 225 408ft 0kts
13-Sep-20 13:32 33.821619 -116.506962 225 408ft 0kts
13-Sep-20 13:33 33.821619 -116.506962 225 408ft 0kts
13-Sep-20 13:34 33.821619 -116.506962 225 408ft 0kts
13-Sep-20 13:35 33.821619 -116.506962 225 408ft 0kts
13-Sep-20 13:36 33.821619 -116.506962 225 408ft 0kts
13-Sep-20 13:37 33.821619 -116.506962 225 408ft 0kts
13-Sep-20 13:38 33.821619 -116.506962 225 408ft 0kts
13-Sep-20 13:39 33.821591 -116.506972 176 408ft 1kts
13-Sep-20 13:40 33.822652 -116.504924 55 409ft 10kts
13-Sep-20 13:41 33.826379 -116.506810 325 417ft 34kts
13-Sep-20 13:42 33.833888 -116.513571 323 445ft 29kts
13-Sep-20 13:43 33.839626 -116.517750 22 470ft 0kts
13-Sep-20 13:44 33.839653 -116.517737 23 470ft 3kts
13-Sep-20 13:45 33.824945 -116.502833 136 910ft 118kts
13-Sep-20 13:46 33.812334 -116.469088 110 2810ft 106kts
13-Sep-20 13:47 33.807679 -116.436376 63 4541ft 99kts
13-Sep-20 13:48 33.822955 -116.408687 53 6051ft 100kts
13-Sep-20 13:49 33.839168 -116.381788 55 7431ft 100kts
13-Sep-20 13:50 33.852808 -116.353158 60 8694ft 98kts
13-Sep-20 13:51 33.865972 -116.324569 60 9843ft 97kts
13-Sep-20 13:52 33.879055 -116.296153 60 10887ft 97kts
13-Sep-20 13:53 33.892046 -116.267933 60 11841ft 96kts
13-Sep-20 13:54 33.905027 -116.239728 60 12714ft 96kts
13-Sep-20 13:55 33.919439 -116.208158 61 13135ft 133kts
13-Sep-20 13:56 33.939522 -116.163466 62 13127ft 163kts
13-Sep-20 13:57 33.961391 -116.113864 62 13091ft 170kts
13-Sep-20 13:58 33.983746 -116.063110 62 13073ft 171kts
13-Sep-20 13:59 34.006016 -116.012488 62 13072ft 171kts
13-Sep-20 14:00 34.028693 -115.960830 62 13118ft 177kts
13-Sep-20 14:02 34.056046 -115.898435 62 13077ft 181kts
13-Sep-20 14:02 34.075612 -115.853736 62 13072ft 181kts
13-Sep-20 14:03 34.099065 -115.800087 62 13073ft 180kts
13-Sep-20 14:04 34.128729 -115.751984 43 13074ft 181kts
13-Sep-20 14:05 34.165355 -115.710372 42 13071ft 181kts
13-Sep-20 14:06 34.202143 -115.668973 42 13073ft 180kts
13-Sep-20 14:07 34.238916 -115.627587 42 13073ft 180kts
13-Sep-20 14:08 34.275756 -115.586080 42 13073ft 180kts
13-Sep-20 14:09 34.312439 -115.544698 42 13073ft 180kts
13-Sep-20 14:10 34.358041 -115.522204 12 13090ft 180kts
13-Sep-20 14:11 34.406634 -115.507407 18 13082ft 180kts
13-Sep-20 14:12 34.451253 -115.480846 30 13083ft 180kts
13-Sep-20 14:13 34.497030 -115.455772 20 13071ft 181kts
13-Sep-20 14:14 34.544323 -115.434547 19 13073ft 181kts
13-Sep-20 14:15 34.591570 -115.413850 19 13063ft 181kts
13-Sep-20 14:16 34.638799 -115.393196 19 13072ft 181kts
13-Sep-20 14:17 34.686117 -115.372484 19 13073ft 181kts
13-Sep-20 14:18 34.733437 -115.351746 19 13073ft 181kts
13-Sep-20 14:19 34.780009 -115.331199 19 13100ft 183kts
13-Sep-20 14:20 34.827555 -115.310416 19 13098ft 181kts
13-Sep-20 14:21 34.874856 -115.289622 19 13100ft 181kts
13-Sep-20 14:22 34.922160 -115.268797 20 13098ft 179kts
13-Sep-20 14:23 34.968808 -115.248227 20 13100ft 178kts
13-Sep-20 14:24 35.015809 -115.227477 20 13101ft 180kts
13-Sep-20 14:25 35.063000 -115.206619 20 13100ft 180kts
13-Sep-20 14:26 35.110145 -115.185755 20 13100ft 180kts
13-Sep-20 14:27 35.159363 -115.176276 1 13096ft 180kts
13-Sep-20 14:28 35.209389 -115.175129 0 13100ft 180kts
13-Sep-20 14:29 35.259689 -115.174224 0 13100ft 180kts
13-Sep-20 14:30 35.309790 -115.173351 0 13117ft 179kts
13-Sep-20 14:31 35.361353 -115.172438 0 12765ft 192kts
13-Sep-20 14:32 35.415876 -115.171476 0 12149ft 200kts
13-Sep-20 14:33 35.472205 -115.170482 0 11264ft 200kts
13-Sep-20 14:34 35.526570 -115.169560 0 10357ft 190kts
13-Sep-20 14:35 35.577857 -115.168672 0 9961ft 175kts
13-Sep-20 14:36 35.626371 -115.167813 0 10029ft 175kts
13-Sep-20 14:37 35.673950 -115.162288 12 9858ft 173kts
13-Sep-20 14:38 35.719302 -115.149319 13 8774ft 146kts
13-Sep-20 14:39 35.753984 -115.139376 13 7183ft 117kts
13-Sep-20 14:40 35.783553 -115.136861 0 6364ft 105kts
13-Sep-20 14:41 35.815036 -115.136568 0 5979ft 118kts
13-Sep-20 14:42 35.847707 -115.136333 0 5844ft 116kts
13-Sep-20 14:43 35.880648 -115.136117 0 5515ft 128kts
13-Sep-20 14:44 35.918283 -115.135866 0 4440ft 144kts
13-Sep-20 14:45 35.957157 -115.135505 357 2694ft 120kts
13-Sep-20 14:46 35.974428 -115.136519 268 2425ft 0kts
13-Sep-20 14:47 35.974420 -115.136988 268 2424ft 0kts
13-Sep-20 14:48 35.974216 -115.137751 180 2423ft 0kts

Navigation Log

Ident Type
Flight plan parsing failed, navigation log unavailable